createdAt,value
2019-02-04T00:00:07.632Z,100082.41
2019-02-04T00:02:40.799Z,100091.20
2019-02-04T00:05:12.282Z,100087.43
2019-02-04T00:07:43.774Z,100100.44
2019-02-04T00:10:15.592Z,100103.34
2019-02-04T00:12:47.048Z,100096.72
2019-02-04T00:15:18.940Z,100094.05
2019-02-04T00:17:50.477Z,100092.94
2019-02-04T00:20:22.109Z,100091.11
2019-02-04T00:22:53.669Z,100102.88
2019-02-04T00:25:25.324Z,100109.72
2019-02-04T00:27:57.650Z,100116.86
2019-02-04T00:30:29.143Z,100125.55
2019-02-04T00:33:00.629Z,100137.13
2019-02-04T00:35:32.133Z,100137.66
2019-02-04T00:38:03.606Z,100139.73
2019-02-04T00:40:35.802Z,100144.54
2019-02-04T00:43:07.275Z,100153.36
2019-02-04T00:45:38.738Z,100152.69
2019-02-04T00:48:10.201Z,100155.70
2019-02-04T00:50:41.721Z,100159.59
2019-02-04T00:53:13.421Z,100164.91
2019-02-04T00:55:46.329Z,100162.11
2019-02-04T00:58:17.809Z,100162.05
2019-02-04T01:00:49.268Z,100140.78
2019-02-04T01:03:20.749Z,100153.39
2019-02-04T01:05:52.186Z,100142.45
2019-02-04T01:08:23.624Z,100136.91
2019-02-04T01:10:55.586Z,100135.09
2019-02-04T01:13:28.423Z,100133.94
2019-02-04T01:15:59.917Z,100134.57
2019-02-04T01:18:31.377Z,100139.45
2019-02-04T01:21:02.983Z,100153.68
2019-02-04T01:23:34.613Z,100155.61
2019-02-04T01:26:06.465Z,100175.87
2019-02-04T01:28:38.293Z,100187.11
2019-02-04T01:31:09.756Z,100190.28
2019-02-04T01:33:41.261Z,100194.02
2019-02-04T01:36:12.752Z,100198.02
2019-02-04T01:38:44.223Z,100201.86
2019-02-04T01:41:16.185Z,100206.33
2019-02-04T01:43:47.670Z,100209.95
2019-02-04T01:46:19.163Z,100208.30
2019-02-04T01:48:50.656Z,100206.43
2019-02-04T01:51:22.153Z,100209.95
2019-02-04T01:53:53.681Z,100213.16
2019-02-04T01:56:25.365Z,100201.34
2019-02-04T01:58:56.820Z,100207.35
2019-02-04T02:01:28.297Z,100219.03
2019-02-04T02:03:59.731Z,100226.63
2019-02-04T02:06:31.223Z,100232.63
2019-02-04T02:09:04.366Z,100240.34
2019-02-04T02:11:37.839Z,100232.56
2019-02-04T02:14:09.304Z,100226.91
2019-02-04T02:16:41.111Z,100222.38
2019-02-04T02:19:12.590Z,100211.73
2019-02-04T02:21:44.531Z,100219.11
2019-02-04T02:24:16.054Z,100223.41
2019-02-04T02:26:47.775Z,100228.14
2019-02-04T02:29:19.645Z,100234.39
2019-02-04T02:31:51.103Z,100235.30
2019-02-04T02:34:22.617Z,100237.63
2019-02-04T02:36:54.146Z,100241.47
2019-02-04T02:39:25.747Z,100255.78
2019-02-04T02:41:57.731Z,100267.17
2019-02-04T02:44:29.243Z,100275.52
2019-02-04T02:47:00.696Z,100288.48
2019-02-04T02:49:32.162Z,100293.42
2019-02-04T02:52:03.600Z,100293.02
2019-02-04T02:54:35.319Z,100303.56
2019-02-04T02:57:06.955Z,100308.05
2019-02-04T02:59:38.404Z,100314.31
2019-02-04T03:02:09.943Z,100319.13
2019-02-04T03:04:41.392Z,100320.80
2019-02-04T03:07:12.840Z,100327.88
2019-02-04T03:09:44.301Z,100338.89
2019-02-04T03:12:15.775Z,100351.70
2019-02-04T03:14:47.251Z,100358.94
2019-02-04T03:17:18.730Z,100362.53
2019-02-04T03:19:50.193Z,100375.67
2019-02-04T03:22:22.137Z,100381.93
2019-02-04T03:24:53.627Z,100389.21
2019-02-04T03:27:25.277Z,100395.60
2019-02-04T03:29:57.022Z,100408.36
2019-02-04T03:32:28.462Z,100414.14
2019-02-04T03:34:59.927Z,100414.30
2019-02-04T03:37:31.374Z,100417.59
2019-02-04T03:40:02.820Z,100436.00
2019-02-04T03:42:35.215Z,100432.62
2019-02-04T03:45:07.053Z,100441.36
2019-02-04T03:47:38.562Z,100446.08
2019-02-04T03:50:11.769Z,100458.97
2019-02-04T03:52:43.206Z,100462.56
2019-02-04T03:55:15.407Z,100474.77
2019-02-04T03:57:47.103Z,100478.06
2019-02-04T04:00:22.453Z,100492.19
2019-02-04T04:02:53.923Z,100493.02
2019-02-04T04:05:25.449Z,100497.06
2019-02-04T04:07:56.878Z,100497.56
2019-02-04T04:10:28.337Z,100499.16
2019-02-04T04:13:01.161Z,100501.30
2019-02-04T04:15:32.821Z,100516.77
2019-02-04T04:18:15.050Z,100520.66
2019-02-04T04:20:37.734Z,100526.10
2019-02-04T04:23:09.375Z,100526.17
2019-02-04T04:25:40.781Z,100532.81
2019-02-04T04:28:12.262Z,100536.88
2019-02-04T04:30:43.782Z,100545.39
2019-02-04T04:33:15.412Z,100552.09
2019-02-04T04:35:46.841Z,100561.17
2019-02-04T04:38:18.330Z,100564.20
2019-02-04T04:40:49.807Z,100570.99
2019-02-04T04:43:21.560Z,100570.36
2019-02-04T04:45:53.039Z,100584.12
2019-02-04T04:48:26.567Z,100588.15
2019-02-04T04:50:59.048Z,100601.70
2019-02-04T04:53:30.487Z,100606.14
2019-02-04T04:56:01.957Z,100611.73
2019-02-04T04:58:34.891Z,100621.33
2019-02-04T05:01:06.387Z,100638.31
2019-02-04T05:03:38.027Z,100638.71
2019-02-04T05:06:09.500Z,100644.15
2019-02-04T05:08:40.965Z,100666.48
2019-02-04T05:11:12.517Z,100663.48
2019-02-04T05:13:44.000Z,100676.01
2019-02-04T05:16:16.689Z,100685.06
2019-02-04T05:18:48.626Z,100698.02
2019-02-04T05:21:20.120Z,100701.29
2019-02-04T05:23:51.794Z,100693.83
2019-02-04T05:26:23.243Z,100721.14
2019-02-04T05:28:54.974Z,100722.13
2019-02-04T05:31:26.456Z,100740.05
2019-02-04T05:33:57.910Z,100742.88
2019-02-04T05:36:29.362Z,100747.64
2019-02-04T05:39:00.776Z,100754.89
2019-02-04T05:41:33.891Z,100757.78
2019-02-04T05:44:05.593Z,100760.47
2019-02-04T05:46:37.060Z,100772.33
2019-02-04T05:49:08.637Z,100787.41
2019-02-04T05:51:40.175Z,100788.45
2019-02-04T05:54:11.610Z,100805.34
2019-02-04T05:56:43.096Z,100811.65
2019-02-04T05:59:14.817Z,100826.63
2019-02-04T06:01:46.301Z,100838.67
2019-02-04T06:04:17.726Z,100840.61
2019-02-04T06:06:49.218Z,100855.39
2019-02-04T06:09:20.709Z,100863.00
2019-02-04T06:11:52.192Z,100862.44
2019-02-04T06:14:24.016Z,100870.99
2019-02-04T06:16:55.474Z,100883.78
2019-02-04T06:19:27.533Z,100883.67
2019-02-04T06:21:59.076Z,100900.64
2019-02-04T06:24:30.821Z,100909.62
2019-02-04T06:27:02.279Z,100913.45
2019-02-04T06:29:34.028Z,100931.20
2019-02-04T06:32:05.940Z,100936.98
2019-02-04T06:34:37.372Z,100944.63
2019-02-04T06:37:09.078Z,100958.13
2019-02-04T06:39:40.564Z,100959.32
2019-02-04T06:42:12.016Z,100967.38
2019-02-04T06:44:44.313Z,100967.48
2019-02-04T06:47:16.054Z,100977.08
2019-02-04T06:49:47.504Z,100990.27
2019-02-04T06:52:18.972Z,100989.20
2019-02-04T06:54:50.698Z,100997.32
2019-02-04T06:57:22.589Z,101005.95
2019-02-04T06:59:54.397Z,101015.58
2019-02-04T07:02:25.811Z,101013.49
2019-02-04T07:04:57.308Z,101026.07
2019-02-04T07:07:28.840Z,101032.88
2019-02-04T07:10:00.755Z,101046.00
2019-02-04T07:12:32.458Z,101057.61
2019-02-04T07:15:04.133Z,101057.27
2019-02-04T07:17:35.592Z,101066.03
2019-02-04T07:20:09.366Z,101071.36
2019-02-04T07:22:40.920Z,101083.50
2019-02-04T07:25:13.239Z,101086.27
2019-02-04T07:27:44.750Z,101091.75
2019-02-04T07:30:19.448Z,101097.39
2019-02-04T07:32:51.441Z,101103.42
2019-02-04T07:35:23.000Z,101109.05
2019-02-04T07:37:54.458Z,101108.25
2019-02-04T07:40:29.169Z,101118.56
2019-02-04T07:43:00.669Z,101120.17
2019-02-04T07:45:32.835Z,101123.95
2019-02-04T07:48:04.358Z,101126.48
2019-02-04T07:50:35.814Z,101129.54
2019-02-04T07:53:07.337Z,101143.91
2019-02-04T07:55:38.803Z,101143.33
2019-02-04T07:58:10.750Z,101158.87
2019-02-04T08:00:42.434Z,101169.18
2019-02-04T08:03:15.137Z,101176.41
2019-02-04T08:05:46.763Z,101179.63
2019-02-04T08:08:18.302Z,101186.78
2019-02-04T08:10:50.013Z,101199.06
2019-02-04T08:13:28.056Z,101208.20
2019-02-04T08:15:59.733Z,101211.53
2019-02-04T08:18:31.252Z,101222.20
2019-02-04T08:21:02.836Z,101229.16
2019-02-04T08:23:34.305Z,101237.11
2019-02-04T08:26:05.997Z,101246.55
2019-02-04T08:28:37.508Z,101253.50
2019-02-04T08:31:09.211Z,101257.22
2019-02-04T08:33:40.644Z,101255.83
2019-02-04T08:36:12.110Z,101263.44
2019-02-04T08:38:43.656Z,101269.58
2019-02-04T08:41:15.126Z,101281.97
2019-02-04T08:43:46.678Z,101289.91
2019-02-04T08:46:18.478Z,101294.27
2019-02-04T08:48:49.977Z,101296.52
2019-02-04T08:51:21.427Z,101297.64
2019-02-04T08:53:52.911Z,101302.29
2019-02-04T08:56:24.372Z,101309.77
2019-02-04T08:58:55.910Z,101322.60
2019-02-04T09:01:27.724Z,101339.61
2019-02-04T09:03:59.324Z,101353.05
2019-02-04T09:06:32.454Z,101351.70
2019-02-04T09:09:05.848Z,101367.20
2019-02-04T09:11:37.854Z,101363.44
2019-02-04T09:14:09.632Z,101366.41
2019-02-04T09:16:41.357Z,101374.70
2019-02-04T09:19:12.880Z,101376.72
2019-02-04T09:21:44.424Z,101376.59
2019-02-04T09:24:16.247Z,101374.03
2019-02-04T09:26:48.127Z,101371.69
2019-02-04T09:29:19.719Z,101374.97
2019-02-04T09:31:51.556Z,101376.85
2019-02-04T09:34:23.015Z,101387.04
2019-02-04T09:36:54.461Z,101392.78
2019-02-04T09:39:26.412Z,101409.52
2019-02-04T09:41:57.925Z,101407.50
2019-02-04T09:44:29.518Z,101415.64
2019-02-04T09:47:01.257Z,101423.16
2019-02-04T09:49:32.771Z,101424.41
2019-02-04T09:52:04.784Z,101422.14
2019-02-04T09:54:36.489Z,101425.71
2019-02-04T09:57:08.276Z,101426.01
2019-02-04T09:59:39.782Z,101444.14
2019-02-04T10:02:11.567Z,101446.79
2019-02-04T10:04:43.606Z,101455.64
2019-02-04T10:07:15.119Z,101460.23
2019-02-04T10:09:46.602Z,101458.44
2019-02-04T10:12:18.047Z,101452.66
2019-02-04T10:14:49.477Z,101461.56
2019-02-04T10:17:21.032Z,101456.30
2019-02-04T10:19:52.600Z,101465.10
2019-02-04T10:22:24.312Z,101468.69
2019-02-04T10:24:55.939Z,101485.45
2019-02-04T10:27:27.550Z,101493.63
2019-02-04T10:29:59.174Z,101504.56
2019-02-04T10:32:31.879Z,101512.63
2019-02-04T10:35:03.463Z,101525.10
2019-02-04T10:37:35.089Z,101533.57
2019-02-04T10:40:07.979Z,101534.13
2019-02-04T10:42:39.445Z,101540.08
2019-02-04T10:45:12.093Z,101541.22
2019-02-04T10:47:44.556Z,101536.89
2019-02-04T10:50:22.996Z,101536.47
2019-02-04T10:52:54.542Z,101547.27
2019-02-04T10:55:26.140Z,101556.16
2019-02-04T10:57:57.851Z,101564.45
2019-02-04T11:00:31.908Z,101573.17
2019-02-04T11:03:03.821Z,101565.97
2019-02-04T11:05:36.394Z,101571.76
2019-02-04T11:08:08.963Z,101571.31
2019-02-04T11:10:40.483Z,101577.38
2019-02-04T11:13:17.287Z,101577.70
2019-02-04T11:15:49.567Z,101580.61
2019-02-04T11:18:21.213Z,101592.19
2019-02-04T11:20:58.189Z,101601.63
2019-02-04T11:23:25.853Z,101606.25
2019-02-04T11:25:57.370Z,101617.39
2019-02-04T11:28:28.986Z,101624.20
2019-02-04T11:31:03.591Z,101641.80
2019-02-04T11:33:35.463Z,101641.21
2019-02-04T11:36:07.045Z,101636.91
2019-02-04T11:38:38.903Z,101641.16
2019-02-04T11:41:10.612Z,101640.06
2019-02-04T11:43:42.242Z,101634.48
2019-02-04T11:46:13.741Z,101646.05
2019-02-04T11:48:45.363Z,101647.89
2019-02-04T11:51:17.438Z,101643.67
2019-02-04T11:53:48.964Z,101652.42
2019-02-04T11:56:20.520Z,101650.77
2019-02-04T11:58:52.035Z,101651.09
2019-02-04T12:01:23.525Z,101642.38
2019-02-04T12:03:55.285Z,101655.88
2019-02-04T12:06:26.797Z,101655.64
2019-02-04T12:08:58.322Z,101658.88
2019-02-04T12:11:29.829Z,101666.58
2019-02-04T12:14:01.308Z,101671.40
2019-02-04T12:16:33.082Z,101678.75
2019-02-04T12:19:04.804Z,101686.84
2019-02-04T12:21:36.310Z,101686.84
2019-02-04T12:24:07.858Z,101685.13
2019-02-04T12:26:39.339Z,101695.42
2019-02-04T12:29:11.127Z,101698.13
2019-02-04T12:31:42.626Z,101698.01
2019-02-04T12:34:14.290Z,101702.20
2019-02-04T12:36:45.882Z,101701.69
2019-02-04T12:39:20.431Z,101702.05
2019-02-04T12:41:52.118Z,101700.61
2019-02-04T12:44:23.682Z,101709.13
2019-02-04T12:46:55.198Z,101707.93
2019-02-04T12:49:27.017Z,101705.75
2019-02-04T12:51:58.652Z,101707.98
2019-02-04T12:54:30.139Z,101718.75
2019-02-04T12:57:01.624Z,101717.93
2019-02-04T12:59:33.159Z,101719.70
2019-02-04T13:02:04.653Z,101716.33
2019-02-04T13:04:36.433Z,101717.79
2019-02-04T13:07:07.882Z,101716.01
2019-02-04T13:09:39.365Z,101725.50
2019-02-04T13:12:10.886Z,101734.09
2019-02-04T13:14:42.354Z,101734.99
2019-02-04T13:17:13.933Z,101734.30
2019-02-04T13:19:46.094Z,101735.13
2019-02-04T13:22:17.631Z,101739.76
2019-02-04T13:24:49.101Z,101734.48
2019-02-04T13:27:20.595Z,101727.36
2019-02-04T13:29:52.929Z,101730.08
2019-02-04T13:32:24.409Z,101727.00
2019-02-04T13:34:56.012Z,101735.78
2019-02-04T13:37:27.469Z,101735.73
2019-02-04T13:39:58.965Z,101741.75
2019-02-04T13:42:30.810Z,101736.56
2019-02-04T13:45:02.283Z,101746.84
2019-02-04T13:47:33.838Z,101743.34
2019-02-04T13:50:06.726Z,101743.75
2019-02-04T13:52:38.225Z,101747.63
2019-02-04T13:55:13.545Z,101748.13
2019-02-04T13:57:45.003Z,101754.64
2019-02-04T14:00:16.760Z,101756.45
2019-02-04T14:02:58.910Z,101759.13
2019-02-04T14:05:21.470Z,101764.66
2019-02-04T14:07:53.021Z,101769.29
2019-02-04T14:10:31.085Z,101775.68
2019-02-04T14:13:02.889Z,101782.52
2019-02-04T14:15:35.770Z,101781.70
2019-02-04T14:18:08.718Z,101791.15
2019-02-04T14:20:40.662Z,101791.52
2019-02-04T14:23:13.357Z,101788.09
2019-02-04T14:25:44.891Z,101789.81
2019-02-04T14:28:17.138Z,101795.03
2019-02-04T14:30:48.890Z,101792.43
2019-02-04T14:33:20.536Z,101799.78
2019-02-04T14:35:52.268Z,101798.48
2019-02-04T14:38:23.883Z,101798.59
2019-02-04T14:40:57.862Z,101797.29
2019-02-04T14:44:01.849Z,101796.53
2019-02-04T14:47:21.983Z,101797.82
2019-02-04T14:50:46.158Z,101793.06
2019-02-04T14:54:20.438Z,101797.03
2019-02-04T14:57:46.389Z,101796.20
2019-02-04T15:01:24.737Z,101801.41
2019-02-04T15:04:51.898Z,101807.13
2019-02-04T15:08:35.248Z,101811.86
2019-02-04T15:12:21.069Z,101812.27
2019-02-04T15:15:43.837Z,101814.48
2019-02-04T15:19:23.063Z,101815.45
2019-02-04T15:23:18.077Z,101820.70
2019-02-04T15:26:42.181Z,101823.21
2019-02-04T15:30:20.677Z,101834.89
2019-02-04T15:33:53.540Z,101841.45
2019-02-04T15:37:27.499Z,101840.19
2019-02-04T15:41:20.114Z,101857.92
2019-02-04T15:44:33.072Z,101872.62
2019-02-04T15:47:50.591Z,101871.33
2019-02-04T15:51:14.929Z,101871.70
2019-02-04T15:53:46.486Z,101879.45
2019-02-04T15:56:17.988Z,101889.45
2019-02-04T15:58:49.584Z,101894.59
2019-02-04T16:01:22.329Z,101901.54
2019-02-04T16:03:53.911Z,101899.78
2019-02-04T16:06:25.556Z,101911.44
2019-02-04T16:08:57.107Z,101911.97
2019-02-04T16:11:28.864Z,101918.84
2019-02-04T16:14:00.456Z,101924.48
2019-02-04T16:16:32.155Z,101927.94
2019-02-04T16:19:03.686Z,101930.54
2019-02-04T16:21:35.259Z,101932.72
2019-02-04T16:24:07.074Z,101933.63
2019-02-04T16:26:38.795Z,101931.08
2019-02-04T16:29:11.057Z,101933.66
2019-02-04T16:31:42.920Z,101941.82
2019-02-04T16:34:14.586Z,101948.30
2019-02-04T16:36:46.258Z,101952.17
2019-02-04T16:39:17.991Z,101956.47
2019-02-04T16:41:49.977Z,101950.44
2019-02-04T16:44:21.570Z,101957.83
2019-02-04T16:46:54.680Z,101968.22
2019-02-04T16:49:26.298Z,101962.20
2019-02-04T16:51:57.930Z,101966.08
2019-02-04T16:54:29.668Z,101969.06
2019-02-04T16:57:02.509Z,101976.00
2019-02-04T16:59:34.538Z,101976.44
2019-02-04T17:02:06.414Z,101986.83
2019-02-04T17:04:38.053Z,101988.97
2019-02-04T17:07:09.642Z,101989.39
2019-02-04T17:09:41.780Z,101989.80
2019-02-04T17:12:14.317Z,101993.69
2019-02-04T17:14:46.031Z,101989.36
2019-02-04T17:17:17.631Z,101987.66
2019-02-04T17:19:50.169Z,101990.65
2019-02-04T17:22:22.649Z,101989.34
2019-02-04T17:24:54.200Z,101991.94
2019-02-04T17:27:25.772Z,101997.56
2019-02-04T17:29:57.522Z,101992.34
2019-02-04T17:32:29.247Z,101993.63
2019-02-04T17:35:01.367Z,101996.65
2019-02-04T17:37:33.383Z,102005.28
2019-02-04T17:40:05.979Z,102007.02
2019-02-04T17:42:37.913Z,102011.78
2019-02-04T17:45:11.275Z,102008.73
2019-02-04T17:47:42.878Z,102008.33
2019-02-04T17:50:16.770Z,102010.48
2019-02-04T17:52:48.364Z,102010.94
2019-02-04T17:55:22.345Z,102015.27
2019-02-04T17:57:54.730Z,102016.97
2019-02-04T18:00:36.163Z,102021.31
2019-02-04T18:03:07.887Z,102023.91
2019-02-04T18:05:39.465Z,102020.02
2019-02-04T18:08:11.038Z,102017.81
2019-02-04T18:10:42.520Z,102017.81
2019-02-04T18:13:14.364Z,102015.23
2019-02-04T18:15:45.857Z,102009.64
2019-02-04T18:18:17.549Z,102004.90
2019-02-04T18:20:49.048Z,102004.85
2019-02-04T18:23:20.712Z,102004.84
2019-02-04T18:25:52.224Z,102004.84
2019-02-04T18:28:24.240Z,102006.58
2019-02-04T18:30:56.053Z,101997.06
2019-02-04T18:33:28.117Z,102001.87
2019-02-04T18:35:59.970Z,102009.25
2019-02-04T18:38:32.194Z,102007.95
2019-02-04T18:41:05.736Z,102010.95
2019-02-04T18:43:38.363Z,102015.23
2019-02-04T18:46:10.079Z,102010.48
2019-02-04T18:48:42.177Z,102012.23
2019-02-04T18:51:13.805Z,102010.95
2019-02-04T18:53:57.161Z,102018.78
2019-02-04T18:56:18.456Z,102017.14
2019-02-04T18:58:50.166Z,102015.41
2019-02-04T19:01:21.718Z,102012.00
2019-02-04T19:03:53.321Z,102020.63
2019-02-04T19:06:25.838Z,102015.44
2019-02-04T19:08:57.410Z,102014.11
2019-02-04T19:11:29.321Z,102015.36
2019-02-04T19:14:01.271Z,102007.56
2019-02-04T19:16:32.917Z,102012.74
2019-02-04T19:19:04.399Z,102011.00
2019-02-04T19:21:38.207Z,102014.50
2019-02-04T19:24:10.050Z,102011.46
2019-02-04T19:26:42.013Z,102008.42
2019-02-04T19:29:13.880Z,102021.83
2019-02-04T19:31:46.560Z,102017.95
2019-02-04T19:34:19.147Z,102016.69
2019-02-04T19:36:50.781Z,102012.41
2019-02-04T19:39:22.500Z,102009.77
2019-02-04T19:41:54.576Z,102014.55
2019-02-04T19:44:26.693Z,102016.29
2019-02-04T19:46:58.233Z,102011.06
2019-02-04T19:49:29.756Z,102008.92
2019-02-04T19:52:01.365Z,102002.08
2019-02-04T19:54:32.887Z,101994.30
2019-02-04T19:57:04.722Z,101996.00
2019-02-04T19:59:36.425Z,101998.22
2019-02-04T20:02:07.940Z,102008.58
2019-02-04T20:04:40.572Z,102010.73
2019-02-04T20:07:12.204Z,102020.24
2019-02-04T20:09:44.155Z,102015.89
2019-02-04T20:12:16.014Z,102012.00
2019-02-04T20:14:47.901Z,102015.84
2019-02-04T20:17:20.906Z,102017.58
2019-02-04T20:19:52.687Z,102019.33
2019-02-04T20:22:25.450Z,102028.87
2019-02-04T20:24:57.791Z,102026.29
2019-02-04T20:27:30.172Z,102031.91
2019-02-04T20:30:01.902Z,102039.67
2019-02-04T20:32:34.240Z,102038.81
2019-02-04T20:35:07.056Z,102042.69
2019-02-04T20:37:39.089Z,102039.23
2019-02-04T20:40:12.722Z,102048.75
2019-02-04T20:42:44.328Z,102050.02
2019-02-04T20:45:16.164Z,102056.08
2019-02-04T20:47:48.328Z,102054.34
2019-02-04T20:50:29.498Z,102060.41
2019-02-04T20:53:01.723Z,102059.96
2019-02-04T20:55:34.667Z,102062.11
2019-02-04T20:58:06.550Z,102062.12
2019-02-04T21:00:38.628Z,102059.53
2019-02-04T21:03:10.248Z,102070.77
2019-02-04T21:05:42.039Z,102073.32
2019-02-04T21:08:13.706Z,102066.80
2019-02-04T21:10:45.367Z,102071.58
2019-02-04T21:13:17.041Z,102072.88
2019-02-04T21:15:48.950Z,102071.17
2019-02-04T21:18:20.848Z,102075.49
2019-02-04T21:20:52.708Z,102083.70
2019-02-04T21:23:24.744Z,102076.36
2019-02-04T21:25:56.658Z,102074.22
2019-02-04T21:28:28.557Z,102080.25
2019-02-04T21:31:00.525Z,102080.26
2019-02-04T21:33:32.246Z,102083.69
2019-02-04T21:36:03.847Z,102083.25
2019-02-04T21:38:35.769Z,102081.53
2019-02-04T21:41:08.544Z,102076.28
2019-02-04T21:43:40.224Z,102084.02
2019-02-04T21:46:12.365Z,102092.69
2019-02-04T21:48:44.022Z,102091.29
2019-02-04T21:51:15.653Z,102092.53
2019-02-04T21:53:47.253Z,102091.28
2019-02-04T21:56:18.791Z,102094.74
2019-02-04T21:58:50.468Z,102090.45
2019-02-04T22:01:22.819Z,102085.75
2019-02-04T22:03:54.589Z,102081.50
2019-02-04T22:06:26.261Z,102071.55
2019-02-04T22:08:57.894Z,102076.73
2019-02-04T22:11:29.543Z,102076.71
2019-02-04T22:14:01.599Z,102077.63
2019-02-04T22:16:33.479Z,102077.20
2019-02-04T22:19:05.345Z,102074.97
2019-02-04T22:21:36.813Z,102080.22
2019-02-04T22:24:08.763Z,102080.22
2019-02-04T22:26:40.260Z,102079.34
2019-02-04T22:29:12.048Z,102083.61
2019-02-04T22:31:43.596Z,102081.86
2019-02-04T22:34:15.563Z,102083.15
2019-02-04T22:36:47.077Z,102077.52
2019-02-04T22:39:19.029Z,102079.30
2019-02-04T22:41:50.692Z,102081.92
2019-02-04T22:44:22.194Z,102081.46
2019-02-04T22:46:54.099Z,102084.05
2019-02-04T22:49:25.619Z,102074.09
2019-02-04T22:51:57.217Z,102075.41
2019-02-04T22:54:28.699Z,102071.52
2019-02-04T22:57:00.554Z,102067.64
2019-02-04T22:59:32.022Z,102066.75
2019-02-04T23:02:03.725Z,102067.20
2019-02-04T23:04:35.340Z,102072.39
2019-02-04T23:07:07.410Z,102067.20
2019-02-04T23:09:38.876Z,102066.40
2019-02-04T23:12:10.409Z,102068.52
2019-02-04T23:14:41.855Z,102062.50
2019-02-04T23:17:13.620Z,102059.44
2019-02-04T23:19:45.093Z,102061.57
2019-02-04T23:22:17.054Z,102060.28
2019-02-04T23:24:48.531Z,102055.16
2019-02-04T23:27:20.503Z,102056.02
2019-02-04T23:29:52.173Z,102060.33
2019-02-04T23:32:23.755Z,102052.95
2019-02-04T23:34:55.335Z,102055.56
2019-02-04T23:37:26.799Z,102050.81
2019-02-04T23:39:59.446Z,102053.39
2019-02-04T23:42:31.090Z,102055.17
2019-02-04T23:45:02.563Z,102049.98
2019-02-04T23:47:34.565Z,102049.97
2019-02-04T23:50:07.167Z,102051.27
2019-02-04T23:52:39.143Z,102044.84
2019-02-04T23:55:10.698Z,102047.44
2019-02-04T23:57:42.216Z,102049.45
